UAL154 PKWA-PTSA
Flight info
| Callsign | UAL154 |
|---|---|
| Flight time | 1h 11m |
| Altitude | 32000 |
| Route | STEFF LECWI |
| Aircraft | B38M/M-SDE1FGHILORVWXY/HB1 |
Departure
| Time | 2026-04-29 10:12 |
|---|---|
| Airport | Bucholz Army Air Field (PKWA) |
Arrival
| Time | 2026-04-29 11:23 |
|---|---|
| Airport | Kosrae International Airport (PTSA) |
| Time | Latitude | Longitude | Altitude | Speed | Heading |
|---|---|---|---|---|---|
| 2026-04-29 09:34 | 8.72698 | 167.74089 | -47 ft | 0 kts | 118° |
| 2026-04-29 10:05 | 8.72694 | 167.74097 | -48 ft | 2 kts | 118° |
| 2026-04-29 10:05 | 8.72679 | 167.74118 | -44 ft | 5 kts | 137° |
| 2026-04-29 10:05 | 8.72643 | 167.74137 | -38 ft | 7 kts | 159° |
| 2026-04-29 10:05 | 8.72588 | 167.74148 | -39 ft | 9 kts | 181° |
| 2026-04-29 10:06 | 8.72532 | 167.74133 | -34 ft | 9 kts | 202° |
| 2026-04-29 10:06 | 8.72470 | 167.74109 | -34 ft | 10 kts | 201° |
| 2026-04-29 10:06 | 8.72433 | 167.74046 | -46 ft | 12 kts | 254° |
| 2026-04-29 10:06 | 8.72408 | 167.73973 | -34 ft | 11 kts | 236° |
| 2026-04-29 10:07 | 8.72357 | 167.73912 | -41 ft | 13 kts | 250° |
| 2026-04-29 10:07 | 8.72328 | 167.73819 | -42 ft | 15 kts | 251° |
| 2026-04-29 10:07 | 8.72296 | 167.73713 | -33 ft | 17 kts | 252° |
| 2026-04-29 10:07 | 8.72261 | 167.73599 | -49 ft | 17 kts | 253° |
| 2026-04-29 10:08 | 8.72226 | 167.73489 | -33 ft | 16 kts | 253° |
| 2026-04-29 10:08 | 8.72191 | 167.73376 | -54 ft | 18 kts | 253° |
| 2026-04-29 10:08 | 8.72156 | 167.73258 | -36 ft | 18 kts | 253° |
| 2026-04-29 10:08 | 8.72122 | 167.73151 | -34 ft | 16 kts | 255° |
| 2026-04-29 10:09 | 8.72088 | 167.73038 | -49 ft | 18 kts | 251° |
| 2026-04-29 10:09 | 8.72051 | 167.72919 | -34 ft | 17 kts | 252° |
| 2026-04-29 10:09 | 8.72013 | 167.72799 | -51 ft | 19 kts | 252° |
| 2026-04-29 10:09 | 8.71972 | 167.72667 | -41 ft | 21 kts | 253° |
| 2026-04-29 10:10 | 8.71931 | 167.72530 | -49 ft | 17 kts | 254° |
| 2026-04-29 10:10 | 8.71896 | 167.72417 | -41 ft | 16 kts | 252° |
| 2026-04-29 10:10 | 8.71863 | 167.72316 | -36 ft | 15 kts | 243° |
| 2026-04-29 10:10 | 8.71779 | 167.72297 | -37 ft | 9 kts | 164° |
| 2026-04-29 10:11 | 8.71751 | 167.72321 | -43 ft | 4 kts | 82° |
| 2026-04-29 10:11 | 8.71754 | 167.72331 | -44 ft | 0 kts | 70° |
| 2026-04-29 10:11 | 8.71755 | 167.72336 | -44 ft | 10 kts | 71° |
| 2026-04-29 10:11 | 8.71865 | 167.72690 | -50 ft | 95 kts | 72° |
| 2026-04-29 10:12 | 8.72137 | 167.73570 | -5 ft | 162 kts | 73° |
| 2026-04-29 10:12 | 8.72496 | 167.74704 | 800 ft | 169 kts | 73° |
| 2026-04-29 10:12 | 8.72871 | 167.75836 | 1891 ft | 173 kts | 77° |
| 2026-04-29 10:12 | 8.72805 | 167.77099 | 2566 ft | 194 kts | 112° |
| 2026-04-29 10:13 | 8.71888 | 167.78198 | 3230 ft | 222 kts | 145° |
| 2026-04-29 10:13 | 8.70341 | 167.78685 | 3943 ft | 249 kts | 175° |
| 2026-04-29 10:13 | 8.68579 | 167.78312 | 4736 ft | 273 kts | 202° |
| 2026-04-29 10:13 | 8.67139 | 167.77084 | 5935 ft | 276 kts | 231° |
| 2026-04-29 10:14 | 8.66280 | 167.75305 | 6861 ft | 287 kts | 252° |
| 2026-04-29 10:14 | 8.65747 | 167.73356 | 7900 ft | 290 kts | 254° |
| 2026-04-29 10:14 | 8.65236 | 167.71374 | 8894 ft | 292 kts | 253° |
| 2026-04-29 10:14 | 8.64713 | 167.69392 | 9949 ft | 293 kts | 253° |
| 2026-04-29 10:15 | 8.64186 | 167.67363 | 10635 ft | 307 kts | 254° |
| 2026-04-29 10:15 | 8.63618 | 167.65218 | 11138 ft | 324 kts | 253° |
| 2026-04-29 10:15 | 8.63030 | 167.62978 | 11752 ft | 335 kts | 253° |
| 2026-04-29 10:15 | 8.62433 | 167.60698 | 12623 ft | 337 kts | 253° |
| 2026-04-29 10:16 | 8.61543 | 167.58509 | 13363 ft | 339 kts | 235° |
| 2026-04-29 10:16 | 8.60658 | 167.57213 | 13938 ft | 338 kts | 233° |
| 2026-04-29 10:16 | 8.58863 | 167.54556 | 14774 ft | 347 kts | 234° |
| 2026-04-29 10:16 | 8.57482 | 167.52535 | 15434 ft | 351 kts | 234° |
| 2026-04-29 10:17 | 8.56074 | 167.50496 | 16055 ft | 357 kts | 232° |
| 2026-04-29 10:17 | 8.54644 | 167.48430 | 16685 ft | 361 kts | 233° |
| 2026-04-29 10:17 | 8.53192 | 167.46337 | 17297 ft | 366 kts | 232° |
| 2026-04-29 10:17 | 8.51719 | 167.44219 | 17886 ft | 371 kts | 233° |
| 2026-04-29 10:18 | 8.50230 | 167.42074 | 18472 ft | 374 kts | 234° |
| 2026-04-29 10:18 | 8.48731 | 167.39915 | 19024 ft | 376 kts | 233° |
| 2026-04-29 10:18 | 8.47217 | 167.37737 | 19495 ft | 381 kts | 232° |
| 2026-04-29 10:18 | 8.45709 | 167.35566 | 19988 ft | 385 kts | 232° |
| 2026-04-29 10:19 | 8.44667 | 167.34067 | 20326 ft | 387 kts | 232° |
| 2026-04-29 10:19 | 8.42609 | 167.31108 | 20998 ft | 391 kts | 233° |
| 2026-04-29 10:19 | 8.41042 | 167.28853 | 21477 ft | 395 kts | 233° |
| 2026-04-29 10:19 | 8.39458 | 167.26576 | 21944 ft | 398 kts | 232° |
| 2026-04-29 10:20 | 8.38378 | 167.25023 | 22229 ft | 401 kts | 234° |
| 2026-04-29 10:20 | 8.36772 | 167.22713 | 22761 ft | 403 kts | 234° |
| 2026-04-29 10:20 | 8.35156 | 167.20390 | 23232 ft | 406 kts | 233° |
| 2026-04-29 10:20 | 8.33523 | 167.18043 | 23600 ft | 411 kts | 233° |
| 2026-04-29 10:21 | 8.31875 | 167.15674 | 23983 ft | 414 kts | 233° |
| 2026-04-29 10:21 | 8.30220 | 167.13296 | 24412 ft | 415 kts | 233° |
| 2026-04-29 10:21 | 8.28580 | 167.10940 | 24825 ft | 416 kts | 233° |
| 2026-04-29 10:21 | 8.26909 | 167.08542 | 25164 ft | 420 kts | 232° |
| 2026-04-29 10:22 | 8.25222 | 167.06118 | 25522 ft | 423 kts | 233° |
| 2026-04-29 10:22 | 8.23529 | 167.03687 | 25948 ft | 424 kts | 233° |
| 2026-04-29 10:22 | 8.21831 | 167.01248 | 26350 ft | 426 kts | 232° |
| 2026-04-29 10:22 | 8.20120 | 166.98793 | 26696 ft | 429 kts | 232° |
| 2026-04-29 10:23 | 8.18396 | 166.96320 | 27048 ft | 432 kts | 233° |
| 2026-04-29 10:23 | 8.16666 | 166.93837 | 27453 ft | 433 kts | 233° |
| 2026-04-29 10:23 | 8.14928 | 166.91346 | 27825 ft | 435 kts | 233° |
| 2026-04-29 10:23 | 8.13179 | 166.88836 | 28137 ft | 439 kts | 232° |
| 2026-04-29 10:24 | 8.11420 | 166.86314 | 28535 ft | 440 kts | 233° |
| 2026-04-29 10:24 | 8.09659 | 166.83789 | 28922 ft | 441 kts | 233° |
| 2026-04-29 10:24 | 8.07888 | 166.81251 | 29245 ft | 444 kts | 233° |
| 2026-04-29 10:24 | 8.06107 | 166.78698 | 29561 ft | 446 kts | 233° |
| 2026-04-29 10:25 | 8.04317 | 166.76133 | 29902 ft | 448 kts | 233° |
| 2026-04-29 10:25 | 8.02519 | 166.73557 | 30185 ft | 450 kts | 233° |
| 2026-04-29 10:25 | 8.00710 | 166.70965 | 30446 ft | 453 kts | 233° |
| 2026-04-29 10:25 | 7.98894 | 166.68364 | 30711 ft | 455 kts | 233° |
| 2026-04-29 10:26 | 7.97068 | 166.65749 | 30970 ft | 457 kts | 233° |
| 2026-04-29 10:26 | 7.95233 | 166.63121 | 31221 ft | 459 kts | 233° |
| 2026-04-29 10:26 | 7.93389 | 166.60482 | 31472 ft | 461 kts | 233° |
| 2026-04-29 10:26 | 7.91535 | 166.57829 | 31727 ft | 464 kts | 233° |
| 2026-04-29 10:27 | 7.87797 | 166.52481 | 31943 ft | 468 kts | 233° |
| 2026-04-29 10:27 | 7.85924 | 166.49801 | 31922 ft | 467 kts | 233° |
| 2026-04-29 10:28 | 7.82182 | 166.44450 | 31928 ft | 467 kts | 233° |
| 2026-04-29 10:28 | 7.78441 | 166.39102 | 31928 ft | 467 kts | 233° |
| 2026-04-29 10:29 | 7.74700 | 166.33756 | 31928 ft | 467 kts | 233° |
| 2026-04-29 10:29 | 7.70958 | 166.28410 | 31928 ft | 466 kts | 233° |
| 2026-04-29 10:30 | 7.67217 | 166.23068 | 31928 ft | 466 kts | 233° |
| 2026-04-29 10:30 | 7.63475 | 166.17727 | 31930 ft | 466 kts | 233° |
| 2026-04-29 10:31 | 7.59733 | 166.12386 | 31930 ft | 467 kts | 233° |
| 2026-04-29 10:31 | 7.55983 | 166.07038 | 31928 ft | 467 kts | 233° |
| 2026-04-29 10:32 | 7.52234 | 166.01691 | 31928 ft | 467 kts | 233° |
| 2026-04-29 10:32 | 7.48486 | 165.96349 | 31927 ft | 467 kts | 233° |
| 2026-04-29 10:33 | 7.44737 | 165.91006 | 31928 ft | 467 kts | 233° |
| 2026-04-29 10:33 | 7.40989 | 165.85667 | 31928 ft | 467 kts | 233° |
| 2026-04-29 10:34 | 7.37263 | 165.80360 | 31930 ft | 467 kts | 233° |
| 2026-04-29 10:34 | 7.33513 | 165.75022 | 31928 ft | 467 kts | 233° |
| 2026-04-29 10:35 | 7.29755 | 165.69674 | 31928 ft | 468 kts | 233° |
| 2026-04-29 10:35 | 7.25998 | 165.64330 | 31928 ft | 467 kts | 233° |
| 2026-04-29 10:36 | 7.22242 | 165.58988 | 31925 ft | 467 kts | 233° |
| 2026-04-29 10:36 | 7.18486 | 165.53648 | 31925 ft | 467 kts | 233° |
| 2026-04-29 10:37 | 7.14726 | 165.48305 | 31922 ft | 467 kts | 233° |
| 2026-04-29 10:37 | 7.10968 | 165.42964 | 31922 ft | 467 kts | 233° |
| 2026-04-29 10:38 | 7.07208 | 165.37624 | 31922 ft | 467 kts | 233° |
| 2026-04-29 10:38 | 7.03452 | 165.32291 | 31922 ft | 467 kts | 233° |
| 2026-04-29 10:39 | 6.99693 | 165.26955 | 31925 ft | 467 kts | 233° |
| 2026-04-29 10:39 | 6.95928 | 165.21628 | 31926 ft | 467 kts | 233° |
| 2026-04-29 10:40 | 6.92165 | 165.16305 | 31922 ft | 467 kts | 233° |
| 2026-04-29 10:40 | 6.88403 | 165.10985 | 31922 ft | 467 kts | 233° |
| 2026-04-29 10:41 | 6.84639 | 165.05664 | 31927 ft | 466 kts | 233° |
| 2026-04-29 10:41 | 6.80885 | 165.00358 | 31922 ft | 465 kts | 233° |
| 2026-04-29 10:42 | 6.77159 | 164.95093 | 31919 ft | 465 kts | 233° |
| 2026-04-29 10:42 | 6.73406 | 164.89794 | 31921 ft | 465 kts | 233° |
| 2026-04-29 10:43 | 6.69653 | 164.84494 | 31922 ft | 465 kts | 233° |
| 2026-04-29 10:43 | 6.65901 | 164.79197 | 31922 ft | 465 kts | 233° |
| 2026-04-29 10:44 | 6.62149 | 164.73903 | 31914 ft | 465 kts | 233° |
| 2026-04-29 10:44 | 6.58397 | 164.68609 | 31915 ft | 465 kts | 233° |
| 2026-04-29 10:45 | 6.54645 | 164.63319 | 31918 ft | 464 kts | 233° |
| 2026-04-29 10:45 | 6.50893 | 164.58029 | 31916 ft | 465 kts | 234° |
| 2026-04-29 10:46 | 6.47140 | 164.52739 | 31915 ft | 464 kts | 233° |
| 2026-04-29 10:46 | 6.43387 | 164.47451 | 31917 ft | 464 kts | 234° |
| 2026-04-29 10:47 | 6.39636 | 164.42167 | 31920 ft | 464 kts | 233° |
| 2026-04-29 10:47 | 6.35884 | 164.36883 | 31919 ft | 464 kts | 233° |
| 2026-04-29 10:48 | 6.32152 | 164.31629 | 31910 ft | 451 kts | 233° |
| 2026-04-29 10:48 | 6.30357 | 164.29103 | 31852 ft | 437 kts | 233° |
| 2026-04-29 10:48 | 6.28607 | 164.26641 | 31571 ft | 430 kts | 233° |
| 2026-04-29 10:48 | 6.26871 | 164.24197 | 31035 ft | 430 kts | 233° |
| 2026-04-29 10:49 | 6.25128 | 164.21744 | 30415 ft | 432 kts | 233° |
| 2026-04-29 10:49 | 6.23381 | 164.19287 | 29869 ft | 432 kts | 233° |
| 2026-04-29 10:49 | 6.21634 | 164.16831 | 29312 ft | 431 kts | 234° |
| 2026-04-29 10:49 | 6.19898 | 164.14387 | 28810 ft | 428 kts | 234° |
| 2026-04-29 10:50 | 6.18173 | 164.11963 | 28339 ft | 425 kts | 234° |
| 2026-04-29 10:50 | 6.16460 | 164.09554 | 27867 ft | 422 kts | 233° |
| 2026-04-29 10:50 | 6.14755 | 164.07158 | 27403 ft | 420 kts | 233° |
| 2026-04-29 10:50 | 6.13062 | 164.04777 | 26943 ft | 418 kts | 234° |
| 2026-04-29 10:51 | 6.11377 | 164.02409 | 26486 ft | 416 kts | 234° |
| 2026-04-29 10:51 | 6.09701 | 164.00053 | 26031 ft | 414 kts | 234° |
| 2026-04-29 10:51 | 6.08028 | 163.97702 | 25592 ft | 412 kts | 234° |
| 2026-04-29 10:51 | 6.06365 | 163.95366 | 25145 ft | 410 kts | 234° |
| 2026-04-29 10:52 | 6.04729 | 163.93068 | 24712 ft | 409 kts | 234° |
| 2026-04-29 10:52 | 6.03078 | 163.90748 | 24277 ft | 408 kts | 234° |
| 2026-04-29 10:52 | 6.01430 | 163.88434 | 23844 ft | 407 kts | 234° |
| 2026-04-29 10:52 | 5.99786 | 163.86124 | 23387 ft | 406 kts | 234° |
| 2026-04-29 10:53 | 5.98148 | 163.83825 | 22885 ft | 404 kts | 234° |
| 2026-04-29 10:53 | 5.96516 | 163.81535 | 22446 ft | 401 kts | 234° |
| 2026-04-29 10:53 | 5.94900 | 163.79266 | 22019 ft | 398 kts | 234° |
| 2026-04-29 10:53 | 5.93295 | 163.77013 | 21596 ft | 395 kts | 234° |
| 2026-04-29 10:54 | 5.91702 | 163.74777 | 21175 ft | 392 kts | 234° |
| 2026-04-29 10:54 | 5.90123 | 163.72561 | 20763 ft | 389 kts | 234° |
| 2026-04-29 10:54 | 5.88552 | 163.70357 | 20350 ft | 386 kts | 235° |
| 2026-04-29 10:54 | 5.86993 | 163.68170 | 19945 ft | 384 kts | 234° |
| 2026-04-29 10:55 | 5.85446 | 163.65998 | 19543 ft | 381 kts | 235° |
| 2026-04-29 10:55 | 5.83909 | 163.63844 | 19135 ft | 379 kts | 234° |
| 2026-04-29 10:55 | 5.82379 | 163.61698 | 18735 ft | 377 kts | 234° |
| 2026-04-29 10:55 | 5.80859 | 163.59566 | 18335 ft | 375 kts | 234° |
| 2026-04-29 10:56 | 5.79346 | 163.57445 | 17894 ft | 373 kts | 234° |
| 2026-04-29 10:56 | 5.77843 | 163.55336 | 17468 ft | 370 kts | 234° |
| 2026-04-29 10:56 | 5.76353 | 163.53247 | 17067 ft | 366 kts | 234° |
| 2026-04-29 10:56 | 5.74876 | 163.51177 | 16677 ft | 363 kts | 234° |
| 2026-04-29 10:57 | 5.73412 | 163.49124 | 16291 ft | 360 kts | 234° |
| 2026-04-29 10:57 | 5.71960 | 163.47089 | 15901 ft | 357 kts | 234° |
| 2026-04-29 10:57 | 5.70521 | 163.45072 | 15514 ft | 354 kts | 234° |
| 2026-04-29 10:57 | 5.69094 | 163.43073 | 15131 ft | 351 kts | 235° |
| 2026-04-29 10:58 | 5.67677 | 163.41087 | 14747 ft | 349 kts | 235° |
| 2026-04-29 10:58 | 5.66269 | 163.39114 | 14380 ft | 346 kts | 235° |
| 2026-04-29 10:58 | 5.64870 | 163.37156 | 14008 ft | 344 kts | 235° |
| 2026-04-29 10:58 | 5.63670 | 163.35092 | 13572 ft | 342 kts | 246° |
| 2026-04-29 10:59 | 5.62676 | 163.32926 | 13144 ft | 341 kts | 245° |
| 2026-04-29 10:59 | 5.61676 | 163.30782 | 12776 ft | 337 kts | 245° |
| 2026-04-29 10:59 | 5.60680 | 163.28661 | 12418 ft | 334 kts | 245° |
| 2026-04-29 10:59 | 5.59691 | 163.26564 | 12049 ft | 331 kts | 245° |
| 2026-04-29 11:00 | 5.58709 | 163.24484 | 11690 ft | 328 kts | 245° |
| 2026-04-29 11:00 | 5.57736 | 163.22423 | 11342 ft | 325 kts | 245° |
| 2026-04-29 11:00 | 5.56769 | 163.20378 | 10986 ft | 323 kts | 245° |
| 2026-04-29 11:00 | 5.55809 | 163.18347 | 10639 ft | 321 kts | 245° |
| 2026-04-29 11:01 | 5.54869 | 163.16357 | 10294 ft | 318 kts | 245° |
| 2026-04-29 11:01 | 5.53932 | 163.14374 | 10088 ft | 309 kts | 245° |
| 2026-04-29 11:01 | 5.53027 | 163.12459 | 9919 ft | 299 kts | 245° |
| 2026-04-29 11:01 | 5.52143 | 163.10590 | 9614 ft | 295 kts | 245° |
| 2026-04-29 11:02 | 5.51266 | 163.08736 | 9239 ft | 293 kts | 245° |
| 2026-04-29 11:02 | 5.50398 | 163.06901 | 8905 ft | 290 kts | 245° |
| 2026-04-29 11:02 | 5.49539 | 163.05083 | 8577 ft | 287 kts | 245° |
| 2026-04-29 11:02 | 5.48689 | 163.03286 | 8259 ft | 283 kts | 244° |
| 2026-04-29 11:03 | 5.47848 | 163.01508 | 7942 ft | 281 kts | 244° |
| 2026-04-29 11:03 | 5.47014 | 162.99744 | 7635 ft | 279 kts | 244° |
| 2026-04-29 11:03 | 5.46182 | 162.97986 | 7313 ft | 279 kts | 244° |
| 2026-04-29 11:03 | 5.45351 | 162.96228 | 7006 ft | 279 kts | 245° |
| 2026-04-29 11:04 | 5.44520 | 162.94473 | 6691 ft | 278 kts | 244° |
| 2026-04-29 11:04 | 5.43689 | 162.92716 | 6371 ft | 279 kts | 244° |
| 2026-04-29 11:04 | 5.42856 | 162.90958 | 6031 ft | 279 kts | 244° |
| 2026-04-29 11:04 | 5.42024 | 162.89198 | 5695 ft | 279 kts | 244° |
| 2026-04-29 11:05 | 5.41192 | 162.87440 | 5376 ft | 279 kts | 244° |
| 2026-04-29 11:05 | 5.40359 | 162.85681 | 5054 ft | 279 kts | 244° |
| 2026-04-29 11:05 | 5.39527 | 162.83923 | 4762 ft | 278 kts | 244° |
| 2026-04-29 11:05 | 5.38699 | 162.82175 | 4496 ft | 276 kts | 244° |
| 2026-04-29 11:06 | 5.37874 | 162.80432 | 4153 ft | 277 kts | 244° |
| 2026-04-29 11:06 | 5.37048 | 162.78697 | 3909 ft | 274 kts | 242° |
| 2026-04-29 11:06 | 5.36341 | 162.77670 | 3762 ft | 269 kts | 224° |
| 2026-04-29 11:06 | 5.34789 | 162.76727 | 3594 ft | 258 kts | 194° |
| 2026-04-29 11:07 | 5.33059 | 162.76635 | 3441 ft | 245 kts | 166° |
| 2026-04-29 11:07 | 5.31545 | 162.77260 | 3389 ft | 229 kts | 142° |
| 2026-04-29 11:07 | 5.30553 | 162.78420 | 3274 ft | 216 kts | 113° |
| 2026-04-29 11:07 | 5.30121 | 162.79824 | 3121 ft | 207 kts | 97° |
| 2026-04-29 11:08 | 5.30093 | 162.81245 | 2930 ft | 202 kts | 81° |
| 2026-04-29 11:08 | 5.30375 | 162.82622 | 2659 ft | 200 kts | 76° |
| 2026-04-29 11:08 | 5.30723 | 162.83939 | 2427 ft | 189 kts | 73° |
| 2026-04-29 11:08 | 5.31090 | 162.85131 | 2235 ft | 167 kts | 71° |
| 2026-04-29 11:09 | 5.31446 | 162.86165 | 2063 ft | 151 kts | 70° |
| 2026-04-29 11:09 | 5.31813 | 162.87146 | 1858 ft | 149 kts | 68° |
| 2026-04-29 11:09 | 5.32174 | 162.88107 | 1631 ft | 145 kts | 69° |
| 2026-04-29 11:09 | 5.32522 | 162.89060 | 1378 ft | 147 kts | 70° |
| 2026-04-29 11:10 | 5.32888 | 162.90021 | 1183 ft | 146 kts | 67° |
| 2026-04-29 11:10 | 5.33270 | 162.90970 | 949 ft | 148 kts | 65° |
| 2026-04-29 11:10 | 5.33711 | 162.91902 | 796 ft | 146 kts | 63° |
| 2026-04-29 11:10 | 5.34133 | 162.92824 | 562 ft | 148 kts | 67° |
| 2026-04-29 11:11 | 5.34520 | 162.93784 | 367 ft | 149 kts | 67° |
| 2026-04-29 11:11 | 5.34953 | 162.94721 | 199 ft | 147 kts | 58° |
| 2026-04-29 11:11 | 5.35512 | 162.95570 | 35 ft | 138 kts | 56° |
| 2026-04-29 11:11 | 5.36026 | 162.96328 | 208 ft | 140 kts | 59° |
| 2026-04-29 11:12 | 5.36598 | 162.97221 | 756 ft | 161 kts | 57° |
| 2026-04-29 11:12 | 5.37188 | 162.98181 | 1664 ft | 163 kts | 58° |
| 2026-04-29 11:12 | 5.37811 | 162.99185 | 1890 ft | 167 kts | 58° |
| 2026-04-29 11:12 | 5.38403 | 163.00150 | 1812 ft | 162 kts | 56° |
| 2026-04-29 11:13 | 5.39286 | 163.00830 | 1826 ft | 164 kts | 17° |
| 2026-04-29 11:13 | 5.40434 | 163.00756 | 1902 ft | 172 kts | 347° |
| 2026-04-29 11:13 | 5.41471 | 163.00057 | 1891 ft | 193 kts | 308° |
| 2026-04-29 11:13 | 5.41846 | 162.98725 | 1955 ft | 212 kts | 266° |
| 2026-04-29 11:14 | 5.41414 | 162.97293 | 2015 ft | 219 kts | 251° |
| 2026-04-29 11:14 | 5.40986 | 162.95807 | 1941 ft | 223 kts | 255° |
| 2026-04-29 11:14 | 5.40583 | 162.94312 | 1923 ft | 221 kts | 255° |
| 2026-04-29 11:14 | 5.40181 | 162.92828 | 1919 ft | 220 kts | 256° |
| 2026-04-29 11:15 | 5.39783 | 162.91349 | 1935 ft | 219 kts | 255° |
| 2026-04-29 11:15 | 5.39381 | 162.89873 | 1925 ft | 220 kts | 255° |
| 2026-04-29 11:15 | 5.38982 | 162.88394 | 1943 ft | 219 kts | 256° |
| 2026-04-29 11:15 | 5.38583 | 162.86920 | 1933 ft | 219 kts | 255° |
| 2026-04-29 11:16 | 5.38184 | 162.85452 | 1921 ft | 219 kts | 255° |
| 2026-04-29 11:16 | 5.37785 | 162.83972 | 1938 ft | 219 kts | 255° |
| 2026-04-29 11:16 | 5.37386 | 162.82501 | 1912 ft | 219 kts | 255° |
| 2026-04-29 11:16 | 5.36985 | 162.81021 | 1926 ft | 220 kts | 255° |
| 2026-04-29 11:17 | 5.36582 | 162.79534 | 1938 ft | 221 kts | 255° |
| 2026-04-29 11:17 | 5.36076 | 162.78079 | 1908 ft | 221 kts | 238° |
| 2026-04-29 11:17 | 5.34986 | 162.77031 | 1906 ft | 219 kts | 206° |
| 2026-04-29 11:17 | 5.33540 | 162.76654 | 1917 ft | 215 kts | 177° |
| 2026-04-29 11:18 | 5.32107 | 162.76980 | 1938 ft | 211 kts | 153° |
| 2026-04-29 11:18 | 5.30738 | 162.77526 | 1959 ft | 212 kts | 156° |
| 2026-04-29 11:18 | 5.29351 | 162.78022 | 1942 ft | 211 kts | 157° |
| 2026-04-29 11:18 | 5.28116 | 162.78745 | 1878 ft | 203 kts | 125° |
| 2026-04-29 11:19 | 5.27764 | 162.80037 | 1845 ft | 195 kts | 77° |
| 2026-04-29 11:19 | 5.28418 | 162.81218 | 1921 ft | 197 kts | 56° |
| 2026-04-29 11:19 | 5.29138 | 162.82395 | 1971 ft | 199 kts | 60° |
| 2026-04-29 11:19 | 5.29808 | 162.83618 | 1951 ft | 196 kts | 62° |
| 2026-04-29 11:20 | 5.30410 | 162.84790 | 1955 ft | 186 kts | 63° |
| 2026-04-29 11:20 | 5.30981 | 162.85946 | 1925 ft | 185 kts | 64° |
| 2026-04-29 11:20 | 5.31530 | 162.87075 | 1748 ft | 171 kts | 63° |
| 2026-04-29 11:20 | 5.32015 | 162.88066 | 1550 ft | 154 kts | 63° |
| 2026-04-29 11:21 | 5.32481 | 162.89040 | 1269 ft | 155 kts | 65° |
| 2026-04-29 11:21 | 5.32942 | 162.89987 | 1086 ft | 149 kts | 63° |
| 2026-04-29 11:21 | 5.33402 | 162.90942 | 865 ft | 158 kts | 63° |
| 2026-04-29 11:21 | 5.33850 | 162.91931 | 707 ft | 152 kts | 65° |
| 2026-04-29 11:22 | 5.34260 | 162.92902 | 447 ft | 152 kts | 67° |
| 2026-04-29 11:22 | 5.34662 | 162.93934 | 292 ft | 157 kts | 69° |
| 2026-04-29 11:22 | 5.35073 | 162.94909 | 126 ft | 148 kts | 58° |
| 2026-04-29 11:22 | 5.35627 | 162.95742 | 30 ft | 127 kts | 56° |
| 2026-04-29 11:23 | 5.35968 | 162.96242 | 32 ft | 59 kts | 56° |
| 2026-04-29 11:23 | 5.36077 | 162.96419 | 32 ft | 15 kts | 79° |
| 2026-04-29 11:23 | 5.36115 | 162.96477 | 32 ft | 5 kts | 333° |
| 2026-04-29 11:23 | 5.36115 | 162.96456 | 32 ft | 4 kts | 241° |
| 2026-04-29 11:24 | 5.36087 | 162.96415 | 32 ft | 12 kts | 236° |
| 2026-04-29 11:24 | 5.36018 | 162.96315 | 32 ft | 21 kts | 235° |
| 2026-04-29 11:24 | 5.35933 | 162.96190 | 33 ft | 23 kts | 236° |
| 2026-04-29 11:24 | 5.35839 | 162.96052 | 31 ft | 25 kts | 236° |
| 2026-04-29 11:25 | 5.35734 | 162.95898 | 31 ft | 28 kts | 235° |
| 2026-04-29 11:25 | 5.35620 | 162.95732 | 29 ft | 29 kts | 235° |
| 2026-04-29 11:25 | 5.35519 | 162.95583 | 31 ft | 19 kts | 233° |
| 2026-04-29 11:25 | 5.35451 | 162.95534 | 31 ft | 11 kts | 177° |
| 2026-04-29 11:26 | 5.35348 | 162.95520 | 30 ft | 4 kts | 233° |
| 2026-04-29 11:26 | 5.35326 | 162.95519 | 30 ft | 3 kts | 139° |
| 2026-04-29 11:26 | 5.35316 | 162.95538 | 30 ft | 3 kts | 112° |
| 2026-04-29 11:27 | 5.35313 | 162.95544 | 30 ft | 0 kts | 112° |